Time;durP1;ratioP1;P1;durP2;ratioP2;P2;SDS_P1;SDS_P2;PMS_P1;PMS_P2;Temp;Humidity;BMP_temperature;BMP_pressure;BME280_temperature;BME280_humidity;BME280_pressure;Samples;Min_cycle;Max_cycle;Signal;HPM_P1;HPM_P2
2023/02/25 00:01:04;;;;;;;5.28;4.00;;;;;;;;;;4994986;28;20911;-90
2023/02/25 00:03:30;;;;;;;4.95;3.58;;;;;;;;;;4995208;28;20392;-91
2023/02/25 00:05:56;;;;;;;4.18;3.42;;;;;;;;;;4991353;28;20777;-92
2023/02/25 00:08:22;;;;;;;4.03;3.63;;;;;;;;;;4977625;28;20378;-89
2023/02/25 00:10:56;;;;;;;5.00;3.83;;;;;;;;;;4995012;28;20382;-91
2023/02/25 00:13:22;;;;;;;5.38;3.30;;;;;;;;;;4963393;28;20404;-91
2023/02/25 00:15:48;;;;;;;3.57;3.00;;;;;;;;;;4999646;28;20457;-93
2023/02/25 00:18:14;;;;;;;3.33;3.00;;;;;;;;;;4981838;28;20383;-94
2023/02/25 00:20:40;;;;;;;3.45;2.90;;;;;;;;;;4992428;28;20394;-93
2023/02/25 00:23:07;;;;;;;3.47;3.03;;;;;;;;;;4995174;28;20390;-93
2023/02/25 00:25:33;;;;;;;3.17;2.88;;;;;;;;;;5002811;28;20392;-94
2023/02/25 00:27:59;;;;;;;3.97;3.40;;;;;;;;;;4984090;28;20395;-94
2023/02/25 00:30:25;;;;;;;3.80;3.10;;;;;;;;;;4976440;28;20405;-90
2023/02/25 00:32:51;;;;;;;3.83;3.22;;;;;;;;;;4993309;28;20394;-90
2023/02/25 00:35:17;;;;;;;4.20;3.07;;;;;;;;;;4973528;28;20454;-94
2023/02/25 00:37:43;;;;;;;4.35;3.20;;;;;;;;;;4973504;28;20465;-92
2023/02/25 00:40:13;;;;;;;3.92;3.53;;;;;;;;;;4993292;28;20469;-92
2023/02/25 00:42:39;;;;;;;3.83;3.30;;;;;;;;;;4993515;28;21774;-91
2023/02/25 00:45:05;;;;;;;4.15;3.28;;;;;;;;;;4994680;28;20404;-91
2023/02/25 00:47:31;;;;;;;3.75;3.30;;;;;;;;;;4995961;28;20430;-91
2023/02/25 00:49:57;;;;;;;4.25;3.25;;;;;;;;;;4993059;28;20433;-90
2023/02/25 00:52:23;;;;;;;5.53;3.42;;;;;;;;;;4990589;28;20390;-93
2023/02/25 00:54:49;;;;;;;3.72;3.20;;;;;;;;;;4992189;28;21014;-92
2023/02/25 00:57:15;;;;;;;3.77;3.20;;;;;;;;;;4990355;28;20977;-92
2023/02/25 00:59:41;;;;;;;4.72;4.05;;;;;;;;;;4991845;28;20747;-92
2023/02/25 01:02:07;;;;;;;4.22;3.38;;;;;;;;;;4995725;28;20790;-91
2023/02/25 01:04:33;;;;;;;4.50;3.35;;;;;;;;;;4997861;28;20449;-92
2023/02/25 01:07:00;;;;;;;4.82;4.10;;;;;;;;;;5014164;28;20402;-92
2023/02/25 01:09:26;;;;;;;4.17;3.77;;;;;;;;;;5013983;28;20470;-91
2023/02/25 01:11:52;;;;;;;4.90;3.85;;;;;;;;;;5015584;28;20466;-92
2023/02/25 01:14:22;;;;;;;4.87;4.37;;;;;;;;;;5018139;28;20394;-91
2023/02/25 01:16:49;;;;;;;4.63;4.20;;;;;;;;;;5004565;28;20452;-89
2023/02/25 01:19:17;;;;;;;5.28;4.63;;;;;;;;;;4995526;28;20399;-91
2023/02/25 01:21:44;;;;;;;5.32;4.68;;;;;;;;;;4979134;28;20395;-93
2023/02/25 01:24:12;;;;;;;5.40;4.57;;;;;;;;;;4995874;28;20794;-91
2023/02/25 01:26:41;;;;;;;5.43;4.82;;;;;;;;;;4995323;28;20927;-93
2023/02/25 01:29:27;;;;;;;5.55;5.05;;;;;;;;;;4995209;28;20433;-91
2023/02/25 01:31:54;;;;;;;5.57;5.07;;;;;;;;;;4994715;28;20489;-92
2023/02/25 01:34:20;;;;;;;6.22;5.57;;;;;;;;;;4994858;28;20425;-90
2023/02/25 01:36:46;;;;;;;6.35;5.30;;;;;;;;;;4994470;28;20407;-91
2023/02/25 01:39:13;;;;;;;5.82;5.22;;;;;;;;;;4994556;28;20477;-94
2023/02/25 01:41:39;;;;;;;6.07;5.47;;;;;;;;;;4994404;28;20395;-91
2023/02/25 01:44:16;;;;;;;6.50;5.78;;;;;;;;;;4994666;28;20465;-91
2023/02/25 01:46:44;;;;;;;7.37;6.63;;;;;;;;;;4976713;28;20391;-92
2023/02/25 01:49:12;;;;;;;7.40;6.70;;;;;;;;;;4994229;28;20378;-92
2023/02/25 01:51:39;;;;;;;7.80;7.00;;;;;;;;;;4994303;28;20841;-92
2023/02/25 01:54:07;;;;;;;7.97;7.17;;;;;;;;;;4994433;28;20440;-94
2023/02/25 01:56:34;;;;;;;8.77;7.88;;;;;;;;;;4994086;28;20510;-93
2023/02/25 01:59:00;;;;;;;8.20;6.90;;;;;;;;;;4994263;28;20394;-94
2023/02/25 02:01:27;;;;;;;8.02;7.25;;;;;;;;;;4993993;28;20390;-92
2023/02/25 02:03:54;;;;;;;8.30;7.07;;;;;;;;;;4992540;28;20736;-91
2023/02/25 02:06:27;;;;;;;8.32;6.85;;;;;;;;;;4994003;28;20399;-92
2023/02/25 02:08:53;;;;;;;7.93;6.78;;;;;;;;;;4993838;28;20379;-92
2023/02/25 02:11:19;;;;;;;8.05;7.20;;;;;;;;;;4993697;28;20390;-92
2023/02/25 02:13:49;;;;;;;7.07;6.38;;;;;;;;;;4993689;28;20780;-91
2023/02/25 02:16:38;;;;;;;7.25;6.55;;;;;;;;;;4993555;28;20422;-92
2023/02/25 02:19:11;;;;;;;6.85;6.22;;;;;;;;;;4993848;28;20425;-93
2023/02/25 02:21:45;;;;;;;7.40;6.53;;;;;;;;;;4993726;28;20433;-92
2023/02/25 02:24:43;;;;;;;6.85;6.13;;;;;;;;;;4993849;28;20382;-92
2023/02/25 02:27:11;;;;;;;6.72;6.03;;;;;;;;;;4937912;28;20886;-91
2023/02/25 02:29:37;;;;;;;7.00;6.30;;;;;;;;;;4993445;28;20379;-92
2023/02/25 02:32:12;;;;;;;6.40;5.80;;;;;;;;;;4993593;28;20449;-93
2023/02/25 02:34:38;;;;;;;6.75;6.13;;;;;;;;;;4993574;28;20382;-93
2023/02/25 02:37:06;;;;;;;6.72;6.13;;;;;;;;;;4993630;28;20977;-91
2023/02/25 02:39:45;;;;;;;6.13;5.53;;;;;;;;;;4993196;28;20398;-92
2023/02/25 02:42:14;;;;;;;6.20;5.60;;;;;;;;;;4993536;28;20776;-91
2023/02/25 02:44:59;;;;;;;6.40;5.80;;;;;;;;;;4993317;28;20398;-92
2023/02/25 02:47:36;;;;;;;6.25;5.15;;;;;;;;;;4993228;28;20469;-92
2023/02/25 02:50:04;;;;;;;7.28;6.35;;;;;;;;;;4993225;28;20390;-91
2023/02/25 02:52:32;;;;;;;6.47;5.88;;;;;;;;;;4992979;28;20387;-92
2023/02/25 02:55:03;;;;;;;6.38;5.80;;;;;;;;;;4993381;28;20398;-94
2023/02/25 02:57:31;;;;;;;5.95;5.45;;;;;;;;;;4977345;28;20418;-94
2023/02/25 03:00:00;;;;;;;6.55;5.97;;;;;;;;;;4992959;28;20469;-92
2023/02/25 03:02:26;;;;;;;6.05;5.45;;;;;;;;;;4992897;28;20386;-90
2023/02/25 03:04:55;;;;;;;6.85;6.18;;;;;;;;;;4993024;28;20465;-94
2023/02/25 03:07:22;;;;;;;6.75;6.18;;;;;;;;;;4992982;28;20401;-92
2023/02/25 03:09:58;;;;;;;7.20;6.60;;;;;;;;;;4992789;28;20721;-91
2023/02/25 03:12:24;;;;;;;7.70;6.95;;;;;;;;;;4992917;28;20391;-93
2023/02/25 03:14:50;;;;;;;8.23;7.15;;;;;;;;;;4988834;28;21136;-93
2023/02/25 03:17:20;;;;;;;7.57;6.87;;;;;;;;;;4988574;28;20410;-91
2023/02/25 03:19:51;;;;;;;7.27;6.57;;;;;;;;;;4992036;28;20472;-93
2023/02/25 03:22:21;;;;;;;7.37;6.77;;;;;;;;;;4991711;28;20546;-92
2023/02/25 03:24:55;;;;;;;7.43;6.72;;;;;;;;;;4992613;28;20783;-93
2023/02/25 03:27:21;;;;;;;7.67;6.97;;;;;;;;;;4983934;28;20441;-91
2023/02/25 03:29:47;;;;;;;7.38;6.63;;;;;;;;;;4992680;28;20748;-92
2023/02/25 03:32:14;;;;;;;7.30;6.70;;;;;;;;;;4992176;28;20391;-93
2023/02/25 03:34:43;;;;;;;8.00;7.20;;;;;;;;;;4992620;28;20390;-92
2023/02/25 03:37:13;;;;;;;8.38;7.53;;;;;;;;;;4992959;28;20406;-91
2023/02/25 03:39:42;;;;;;;7.50;6.90;;;;;;;;;;4992761;28;20371;-93
2023/02/25 03:42:11;;;;;;;8.10;7.40;;;;;;;;;;4992512;28;20390;-92
2023/02/25 03:44:49;;;;;;;7.25;6.65;;;;;;;;;;4992596;28;20389;-93
2023/02/25 03:47:15;;;;;;;7.90;7.13;;;;;;;;;;4992061;28;20387;-91
2023/02/25 03:49:50;;;;;;;7.78;7.07;;;;;;;;;;4992439;28;20401;-93
2023/02/25 03:52:20;;;;;;;8.10;7.30;;;;;;;;;;4992505;28;20387;-92
2023/02/25 03:54:51;;;;;;;7.60;6.90;;;;;;;;;;4992167;28;20449;-89
2023/02/25 03:57:17;;;;;;;8.25;7.25;;;;;;;;;;4992237;28;20438;-90
2023/02/25 03:59:43;;;;;;;7.93;7.22;;;;;;;;;;4994436;28;20477;-90
2023/02/25 04:02:09;;;;;;;8.55;7.55;;;;;;;;;;4995488;28;20469;-94
2023/02/25 04:04:35;;;;;;;8.88;7.90;;;;;;;;;;4995803;28;20418;-94
2023/02/25 04:07:01;;;;;;;7.83;7.10;;;;;;;;;;5002745;28;20405;-91
2023/02/25 04:09:27;;;;;;;7.75;7.05;;;;;;;;;;4994947;28;20883;-90
2023/02/25 04:11:55;;;;;;;8.13;7.32;;;;;;;;;;5005287;28;20411;-92
2023/02/25 04:14:22;;;;;;;8.50;7.60;;;;;;;;;;4989349;28;20541;-92
2023/02/25 04:16:48;;;;;;;8.40;7.60;;;;;;;;;;4986218;28;20402;-91
2023/02/25 04:19:14;;;;;;;8.40;7.60;;;;;;;;;;4989205;28;20879;-93
2023/02/25 04:21:40;;;;;;;8.73;7.85;;;;;;;;;;4998752;28;20391;-93
2023/02/25 04:24:06;;;;;;;8.63;7.82;;;;;;;;;;4998307;28;20381;-92
2023/02/25 04:26:35;;;;;;;8.80;8.00;;;;;;;;;;5003243;28;20418;-91
2023/02/25 04:29:04;;;;;;;8.43;7.63;;;;;;;;;;4985571;28;20880;-93
2023/02/25 04:31:30;;;;;;;8.90;8.10;;;;;;;;;;5006637;28;20386;-92
2023/02/25 04:33:56;;;;;;;10.30;9.20;;;;;;;;;;5011589;28;20419;-93
2023/02/25 04:36:22;;;;;;;8.60;7.80;;;;;;;;;;5005180;28;20478;-92
2023/02/25 04:38:48;;;;;;;9.67;8.17;;;;;;;;;;5024423;28;20381;-92
2023/02/25 04:41:14;;;;;;;8.02;7.35;;;;;;;;;;5030930;28;20388;-95
2023/02/25 04:43:44;;;;;;;9.02;8.23;;;;;;;;;;5001321;28;20399;-92
2023/02/25 04:46:10;;;;;;;8.05;7.25;;;;;;;;;;5018731;28;20396;-91
2023/02/25 04:48:38;;;;;;;8.00;7.20;;;;;;;;;;5014541;28;20390;-93
2023/02/25 04:51:04;;;;;;;8.57;7.68;;;;;;;;;;4987854;28;20754;-92
2023/02/25 04:53:31;;;;;;;8.07;7.28;;;;;;;;;;4994807;28;20381;-93
2023/02/25 04:55:57;;;;;;;8.13;7.43;;;;;;;;;;4984228;28;20477;-92
2023/02/25 04:58:23;;;;;;;8.50;7.67;;;;;;;;;;5010947;28;20939;-91
2023/02/25 05:00:49;;;;;;;8.60;7.75;;;;;;;;;;4990136;28;20385;-92
2023/02/25 05:03:15;;;;;;;8.17;7.37;;;;;;;;;;5000378;28;20392;-91
2023/02/25 05:05:41;;;;;;;7.80;7.10;;;;;;;;;;4993442;28;20391;-93
2023/02/25 05:08:07;;;;;;;7.80;7.10;;;;;;;;;;4996313;28;20469;-92
2023/02/25 05:10:33;;;;;;;8.05;7.35;;;;;;;;;;4982873;28;20505;-94
2023/02/25 05:12:59;;;;;;;8.85;8.00;;;;;;;;;;4990118;28;20915;-92
2023/02/25 05:15:25;;;;;;;8.30;7.50;;;;;;;;;;5009284;28;20381;-91
2023/02/25 05:17:51;;;;;;;8.10;7.40;;;;;;;;;;4993729;28;20466;-91
2023/02/25 05:20:17;;;;;;;8.52;7.72;;;;;;;;;;4995487;28;20400;-92
2023/02/25 05:22:43;;;;;;;9.13;8.27;;;;;;;;;;4993523;28;20476;-91
2023/02/25 05:25:10;;;;;;;8.67;7.67;;;;;;;;;;4992192;28;20912;-91
2023/02/25 05:27:36;;;;;;;8.10;7.30;;;;;;;;;;5012742;28;20385;-92
2023/02/25 05:30:02;;;;;;;7.85;7.13;;;;;;;;;;5003580;28;20872;-92
2023/02/25 05:32:30;;;;;;;7.90;7.10;;;;;;;;;;5002839;28;20427;-93
2023/02/25 05:34:56;;;;;;;9.10;7.50;;;;;;;;;;4985958;28;20389;-94
2023/02/25 05:37:22;;;;;;;7.93;7.23;;;;;;;;;;4986698;28;21011;-92
2023/02/25 05:39:48;;;;;;;7.93;7.20;;;;;;;;;;4989066;28;20387;-91
2023/02/25 05:42:14;;;;;;;8.80;7.28;;;;;;;;;;4984542;28;20387;-92
2023/02/25 05:44:40;;;;;;;7.50;6.78;;;;;;;;;;5007558;28;20409;-93
2023/02/25 05:47:06;;;;;;;7.82;7.05;;;;;;;;;;4976734;28;20403;-91
2023/02/25 05:49:33;;;;;;;9.77;7.78;;;;;;;;;;4977090;28;20387;-92
2023/02/25 05:51:59;;;;;;;8.50;7.70;;;;;;;;;;4994086;28;20394;-93
2023/02/25 05:54:25;;;;;;;8.05;7.25;;;;;;;;;;4994169;28;20421;-91
2023/02/25 05:56:51;;;;;;;8.13;7.40;;;;;;;;;;4994275;28;20416;-91
2023/02/25 05:59:18;;;;;;;8.77;7.97;;;;;;;;;;4994238;28;20422;-91
2023/02/25 06:01:44;;;;;;;9.27;8.37;;;;;;;;;;4994032;28;20425;-93
2023/02/25 06:04:10;;;;;;;8.60;7.80;;;;;;;;;;4999077;28;20426;-92
2023/02/25 06:06:36;;;;;;;8.15;7.35;;;;;;;;;;4997427;28;20943;-93
2023/02/25 06:09:04;;;;;;;7.22;6.53;;;;;;;;;;4995692;28;20888;-90
2023/02/25 06:11:31;;;;;;;7.22;6.53;;;;;;;;;;4978691;28;20393;-92
2023/02/25 06:13:57;;;;;;;9.40;6.60;;;;;;;;;;4988751;28;20444;-92
2023/02/25 06:16:24;;;;;;;6.55;5.95;;;;;;;;;;4988515;28;20415;-92
2023/02/25 06:18:50;;;;;;;8.25;7.45;;;;;;;;;;4992983;28;20853;-92
2023/02/25 06:21:16;;;;;;;8.25;6.60;;;;;;;;;;4991261;28;20374;-91
2023/02/25 06:23:43;;;;;;;7.55;6.75;;;;;;;;;;4990250;28;20386;-93
2023/02/25 06:26:11;;;;;;;6.85;5.85;;;;;;;;;;4986125;28;20390;-93
2023/02/25 06:28:37;;;;;;;7.28;6.57;;;;;;;;;;4990705;28;21022;-91
2023/02/25 06:31:06;;;;;;;7.35;6.65;;;;;;;;;;4987198;28;20406;-91
2023/02/25 06:33:32;;;;;;;8.13;7.43;;;;;;;;;;4990467;28;20657;-92
2023/02/25 06:35:58;;;;;;;8.57;7.68;;;;;;;;;;4978994;28;20416;-95
2023/02/25 06:38:24;;;;;;;8.10;7.40;;;;;;;;;;4991750;28;20867;-93
2023/02/25 06:40:50;;;;;;;8.90;8.00;;;;;;;;;;4997983;28;20392;-92
2023/02/25 06:43:16;;;;;;;8.68;7.90;;;;;;;;;;4997771;28;20710;-93
2023/02/25 06:45:43;;;;;;;8.30;7.50;;;;;;;;;;4994007;28;20398;-91
2023/02/25 06:48:09;;;;;;;8.63;7.83;;;;;;;;;;4990180;28;20387;-93
2023/02/25 06:50:35;;;;;;;8.45;7.70;;;;;;;;;;4992101;28;20393;-91
2023/02/25 06:53:01;;;;;;;9.95;7.70;;;;;;;;;;5000247;28;20427;-91
2023/02/25 06:55:27;;;;;;;7.90;7.10;;;;;;;;;;4977788;28;20401;-91
2023/02/25 06:57:55;;;;;;;8.10;7.40;;;;;;;;;;4991285;28;20382;-91
2023/02/25 07:06:42;;;;;;;8.13;7.37;;;;;;;;;;4950654;29;20489;-92
2023/02/25 07:09:22;;;;;;;9.32;8.18;;;;;;;;;;4949690;28;20420;-93
2023/02/25 07:11:58;;;;;;;8.82;7.85;;;;;;;;;;4992211;28;20398;-94
2023/02/25 07:14:24;;;;;;;8.48;7.68;;;;;;;;;;4986915;28;20393;-94
2023/02/25 07:16:58;;;;;;;8.13;7.32;;;;;;;;;;4986946;28;20410;-92
2023/02/25 07:19:27;;;;;;;7.47;6.78;;;;;;;;;;4993056;28;20755;-93
2023/02/25 07:21:59;;;;;;;8.48;7.35;;;;;;;;;;4992819;28;20375;-90
2023/02/25 07:24:28;;;;;;;8.30;7.50;;;;;;;;;;4992069;28;20391;-90
2023/02/25 07:26:54;;;;;;;9.52;8.52;;;;;;;;;;4993443;28;20635;-92
2023/02/25 07:29:21;;;;;;;9.60;8.60;;;;;;;;;;4992557;28;20389;-93
2023/02/25 07:31:47;;;;;;;9.93;8.47;;;;;;;;;;4989136;28;20395;-91
2023/02/25 07:34:18;;;;;;;8.32;7.53;;;;;;;;;;4989951;28;20413;-92
2023/02/25 07:36:47;;;;;;;13.70;11.10;;;;;;;;;;4992410;28;20433;-92
2023/02/25 07:39:13;;;;;;;13.77;10.47;;;;;;;;;;4990038;28;20893;-92
2023/02/25 07:42:09;;;;;;;;;;;;;;;;;;;;;
2023/02/25 07:47:27;;;;;;;7.80;7.15;;;;;;;;;;4922575;29;20960;-93
2023/02/25 07:49:53;;;;;;;8.65;7.78;;;;;;;;;;4983534;28;20394;-93
2023/02/25 07:53:00;;;;;;;8.27;7.57;;;;;;;;;;4992776;28;20394;-91
2023/02/25 07:55:40;;;;;;;8.23;7.50;;;;;;;;;;4992812;28;20379;-92
2023/02/25 07:58:14;;;;;;;9.30;8.40;;;;;;;;;;4991350;28;20747;-93
2023/02/25 08:03:12;;;;;;;7.95;7.15;;;;;;;;;;5005088;28;20490;-92
2023/02/25 08:05:38;;;;;;;9.30;7.30;;;;;;;;;;5009367;28;20912;-90
2023/02/25 08:08:07;;;;;;;7.65;6.97;;;;;;;;;;5001308;28;20791;-92
2023/02/25 08:10:35;;;;;;;12.33;10.73;;;;;;;;;;5009858;28;20373;-92
2023/02/25 08:13:06;;;;;;;8.25;7.45;;;;;;;;;;5027057;28;20388;-92
2023/02/25 08:15:50;;;;;;;8.27;7.45;;;;;;;;;;5011242;28;20710;-94
2023/02/25 08:20:54;;;;;;;10.88;9.75;;;;;;;;;;5087819;23;20475;-93
2023/02/25 08:23:35;;;;;;;8.30;7.50;;;;;;;;;;5254033;23;20392;-94
2023/02/25 08:26:08;;;;;;;7.88;7.10;;;;;;;;;;5006307;28;20394;-95
2023/02/25 08:28:44;;;;;;;7.80;7.15;;;;;;;;;;5001369;28;20390;-94
2023/02/25 08:31:19;;;;;;;7.43;6.80;;;;;;;;;;4996779;28;20386;-92
2023/02/25 08:34:03;;;;;;;7.38;6.68;;;;;;;;;;5002377;28;20712;-92
2023/02/25 08:36:33;;;;;;;7.32;6.63;;;;;;;;;;5006018;28;20410;-91
2023/02/25 08:41:35;;;;;;;7.90;6.97;;;;;;;;;;5234611;23;20479;-93
2023/02/25 08:44:04;;;;;;;6.70;6.07;;;;;;;;;;5011729;28;20383;-91
2023/02/25 08:46:31;;;;;;;7.03;6.30;;;;;;;;;;5012983;28;20373;-91
2023/02/25 08:49:10;;;;;;;7.05;6.43;;;;;;;;;;5017725;28;20484;-92
2023/02/25 08:54:56;;;;;;;6.72;6.07;;;;;;;;;;4933857;29;20478;-91
2023/02/25 08:57:24;;;;;;;7.30;6.32;;;;;;;;;;4973805;28;20421;-92
2023/02/25 09:00:27;;;;;;;6.47;5.90;;;;;;;;;;4997291;28;20491;-93
2023/02/25 09:03:15;;;;;;;;;;;;;;;;;;;;;
2023/02/25 09:05:41;;;;;;;5.70;5.20;;;;;;;;;;5003117;28;20387;-94
2023/02/25 09:11:08;;;;;;;5.28;4.60;;;;;;;;;;4994014;28;20387;-92
2023/02/25 09:13:34;;;;;;;4.50;4.10;;;;;;;;;;4997940;28;20380;-90
2023/02/25 09:16:01;;;;;;;5.75;4.35;;;;;;;;;;4978578;28;20469;-93
2023/02/25 09:18:30;;;;;;;4.70;4.18;;;;;;;;;;4980837;28;20841;-90
2023/02/25 09:21:00;;;;;;;4.43;3.80;;;;;;;;;;4994996;28;20496;-91
2023/02/25 09:23:28;;;;;;;6.05;3.92;;;;;;;;;;4997558;28;20382;-92
2023/02/25 09:26:12;;;;;;;4.97;4.57;;;;;;;;;;5003644;28;20386;-91
2023/02/25 09:28:42;;;;;;;5.13;4.63;;;;;;;;;;4984856;28;20449;-92
2023/02/25 09:31:10;;;;;;;4.47;3.55;;;;;;;;;;4997297;28;20406;-92
2023/02/25 09:33:37;;;;;;;3.58;3.25;;;;;;;;;;4987980;28;20390;-89
2023/02/25 09:36:07;;;;;;;5.87;4.27;;;;;;;;;;5016732;28;20420;-93
2023/02/25 09:38:33;;;;;;;5.55;4.68;;;;;;;;;;5000900;28;20438;-90
2023/02/25 09:40:59;;;;;;;7.93;4.60;;;;;;;;;;5014001;28;20450;-91
2023/02/25 09:43:34;;;;;;;4.32;3.40;;;;;;;;;;4997318;28;20383;-91
2023/02/25 09:46:05;;;;;;;7.03;4.47;;;;;;;;;;5006359;28;20389;-91
2023/02/25 09:48:33;;;;;;;4.05;3.55;;;;;;;;;;4996212;28;20397;-91
2023/02/25 09:51:19;;;;;;;5.07;3.97;;;;;;;;;;4993539;28;20737;-91
2023/02/25 09:53:49;;;;;;;3.88;2.80;;;;;;;;;;5013147;28;20381;-90
2023/02/25 09:56:15;;;;;;;4.38;2.97;;;;;;;;;;5004495;28;20894;-90
2023/02/25 09:59:00;;;;;;;3.75;2.95;;;;;;;;;;5002914;28;20428;-88
2023/02/25 10:01:26;;;;;;;3.67;2.67;;;;;;;;;;5001795;28;20383;-88
2023/02/25 10:04:13;;;;;;;3.28;2.67;;;;;;;;;;5012115;28;20404;-89
2023/02/25 10:06:41;;;;;;;3.58;3.10;;;;;;;;;;4990510;28;20466;-92
2023/02/25 10:09:23;;;;;;;3.35;2.70;;;;;;;;;;5012502;28;20408;-91
2023/02/25 10:11:52;;;;;;;4.63;3.10;;;;;;;;;;5011674;28;20451;-86
2023/02/25 10:14:33;;;;;;;3.73;3.00;;;;;;;;;;5015772;28;20384;-91
2023/02/25 10:17:07;;;;;;;4.15;3.03;;;;;;;;;;5002797;28;20409;-89
2023/02/25 10:19:40;;;;;;;5.18;3.80;;;;;;;;;;5012416;28;20381;-88
2023/02/25 10:22:06;;;;;;;3.90;3.10;;;;;;;;;;4994681;28;20382;-89
2023/02/25 10:24:33;;;;;;;4.95;4.55;;;;;;;;;;5013329;28;20855;-90
2023/02/25 10:27:16;;;;;;;4.80;4.40;;;;;;;;;;5012480;28;20388;-89
2023/02/25 10:29:51;;;;;;;2.63;1.95;;;;;;;;;;4992119;28;20492;-93
2023/02/25 10:32:22;;;;;;;2.50;2.10;;;;;;;;;;4995519;28;20962;-91
2023/02/25 10:34:50;;;;;;;3.58;1.90;;;;;;;;;;4993776;28;20418;-92
2023/02/25 10:37:21;;;;;;;4.15;1.95;;;;;;;;;;5012554;28;20413;-90
2023/02/25 10:39:47;;;;;;;5.07;2.30;;;;;;;;;;5004208;28;20446;-90
2023/02/25 10:42:14;;;;;;;5.07;4.38;;;;;;;;;;5011738;28;20389;-90
2023/02/25 10:44:42;;;;;;;5.30;4.38;;;;;;;;;;5003546;28;20400;-87
2023/02/25 10:47:10;;;;;;;4.72;2.95;;;;;;;;;;5003265;28;20392;-90
2023/02/25 10:49:38;;;;;;;6.07;3.58;;;;;;;;;;5005542;28;20772;-91
2023/02/25 10:52:14;;;;;;;4.38;2.60;;;;;;;;;;4994258;28;20394;-89
2023/02/25 10:54:48;;;;;;;4.20;2.50;;;;;;;;;;5012789;28;20783;-92
2023/02/25 10:57:24;;;;;;;4.93;2.97;;;;;;;;;;4998927;28;20422;-89
2023/02/25 11:00:01;;;;;;;5.03;3.22;;;;;;;;;;5012219;28;20412;-89
2023/02/25 11:02:30;;;;;;;3.05;2.40;;;;;;;;;;5012157;28;20388;-85
2023/02/25 11:04:56;;;;;;;8.20;2.30;;;;;;;;;;5012057;28;20460;-85
2023/02/25 11:07:39;;;;;;;7.55;2.53;;;;;;;;;;5002997;28;20865;-84
2023/02/25 11:10:08;;;;;;;3.92;2.10;;;;;;;;;;5002611;28;20390;-87
2023/02/25 11:13:02;;;;;;;3.30;2.33;;;;;;;;;;5004538;28;20500;-88
2023/02/25 11:15:28;;;;;;;4.32;2.60;;;;;;;;;;5002620;28;20727;-87
2023/02/25 11:17:55;;;;;;;5.10;3.03;;;;;;;;;;5011629;28;20901;-88
2023/02/25 11:20:23;;;;;;;5.82;2.92;;;;;;;;;;4994513;28;20425;-88
2023/02/25 11:22:54;;;;;;;5.55;3.28;;;;;;;;;;4993659;28;20879;-89
2023/02/25 11:25:23;;;;;;;3.63;2.75;;;;;;;;;;5002138;28;20393;-88
2023/02/25 11:27:57;;;;;;;4.97;2.95;;;;;;;;;;5007106;28;20376;-87
2023/02/25 11:30:36;;;;;;;5.22;2.83;;;;;;;;;;4995021;28;20388;-89
2023/02/25 11:33:03;;;;;;;3.55;2.10;;;;;;;;;;5007795;28;20819;-88
2023/02/25 11:35:34;;;;;;;5.60;3.33;;;;;;;;;;4997468;28;20386;-92
2023/02/25 11:38:12;;;;;;;26.55;15.38;;;;;;;;;;5006144;28;20500;-88
2023/02/25 11:40:43;;;;;;;7.45;5.63;;;;;;;;;;5011738;28;20406;-88
2023/02/25 11:43:17;;;;;;;4.93;2.50;;;;;;;;;;5011837;28;20896;-85
2023/02/25 11:46:10;;;;;;;2.75;2.05;;;;;;;;;;5008185;28;20380;-88
2023/02/25 11:48:50;;;;;;;5.22;2.17;;;;;;;;;;4974060;28;20455;-91
2023/02/25 11:51:18;;;;;;;3.90;2.17;;;;;;;;;;5031205;28;20398;-90
2023/02/25 11:53:45;;;;;;;3.28;1.90;;;;;;;;;;5026636;28;20436;-89
2023/02/25 11:56:24;;;;;;;4.38;2.20;;;;;;;;;;5025894;28;20409;-90
2023/02/25 11:59:11;;;;;;;2.87;1.87;;;;;;;;;;5034827;28;20389;-90
2023/02/25 12:01:56;;;;;;;4.13;2.28;;;;;;;;;;5018012;28;20397;-90
2023/02/25 12:04:22;;;;;;;3.65;1.95;;;;;;;;;;5008040;28;20396;-91
2023/02/25 12:07:07;;;;;;;3.05;1.80;;;;;;;;;;5016764;28;20396;-91
2023/02/25 12:09:36;;;;;;;4.38;2.30;;;;;;;;;;4997912;28;20426;-93
2023/02/25 12:12:21;;;;;;;3.10;1.75;;;;;;;;;;4999985;28;20405;-92
2023/02/25 12:14:57;;;;;;;2.90;1.73;;;;;;;;;;4995216;28;20811;-90
2023/02/25 12:17:42;;;;;;;3.78;2.10;;;;;;;;;;5003924;28;20411;-93
2023/02/25 12:20:27;;;;;;;3.47;2.33;;;;;;;;;;5004680;28;20872;-91
2023/02/25 12:23:11;;;;;;;3.03;1.80;;;;;;;;;;5002387;28;20396;-90
2023/02/25 12:25:49;;;;;;;2.38;1.70;;;;;;;;;;5000102;28;20385;-89
2023/02/25 12:28:15;;;;;;;2.25;1.55;;;;;;;;;;4999832;28;20377;-89
2023/02/25 12:31:02;;;;;;;4.57;1.70;;;;;;;;;;4999581;28;20377;-89
2023/02/25 12:33:50;;;;;;;2.50;1.80;;;;;;;;;;4995676;28;20453;-89
2023/02/25 12:36:30;;;;;;;3.10;1.95;;;;;;;;;;4997610;28;20507;-89
2023/02/25 12:39:05;;;;;;;3.83;1.70;;;;;;;;;;5001814;28;20923;-89
2023/02/25 12:41:46;;;;;;;2.83;1.63;;;;;;;;;;5000349;28;20822;-89
2023/02/25 12:44:15;;;;;;;2.20;1.40;;;;;;;;;;4997383;28;20375;-88
2023/02/25 12:47:01;;;;;;;2.35;1.45;;;;;;;;;;5000914;28;20450;-89
2023/02/25 12:49:45;;;;;;;3.13;1.95;;;;;;;;;;4976006;28;20398;-87
2023/02/25 12:52:24;;;;;;;3.28;2.10;;;;;;;;;;5001773;28;20439;-90
2023/02/25 12:55:04;;;;;;;2.55;1.38;;;;;;;;;;5005961;28;20418;-88
2023/02/25 12:57:30;;;;;;;4.13;1.40;;;;;;;;;;5003096;28;20409;-88
2023/02/25 12:59:58;;;;;;;4.55;1.52;;;;;;;;;;5000440;28;20391;-90
2023/02/25 13:02:34;;;;;;;2.45;1.13;;;;;;;;;;5000073;28;20883;-88
2023/02/25 13:05:09;;;;;;;2.88;1.10;;;;;;;;;;5002854;28;20561;-89
2023/02/25 13:07:42;;;;;;;2.38;1.40;;;;;;;;;;5010083;28;20384;-87
2023/02/25 13:10:17;;;;;;;3.65;1.98;;;;;;;;;;5004618;28;20398;-91
2023/02/25 13:12:44;;;;;;;4.28;2.33;;;;;;;;;;5014553;28;20377;-94
2023/02/25 13:15:27;;;;;;;3.45;2.20;;;;;;;;;;5008528;28;20901;-93
2023/02/25 13:18:25;;;;;;;3.72;1.80;;;;;;;;;;5014159;28;20414;-92
2023/02/25 13:20:58;;;;;;;2.13;1.20;;;;;;;;;;4957898;28;20746;-92
2023/02/25 13:23:33;;;;;;;2.08;1.40;;;;;;;;;;5016006;28;20385;-91
2023/02/25 13:26:18;;;;;;;4.68;1.80;;;;;;;;;;5002030;28;20802;-86
2023/02/25 13:29:16;;;;;;;3.53;1.30;;;;;;;;;;5013790;28;20854;-89
2023/02/25 13:31:48;;;;;;;3.08;1.10;;;;;;;;;;4951558;28;20465;-87
2023/02/25 13:34:26;;;;;;;2.80;1.50;;;;;;;;;;5011427;28;20415;-89
2023/02/25 13:36:57;;;;;;;3.45;1.42;;;;;;;;;;5013455;28;20404;-83
2023/02/25 13:39:38;;;;;;;2.67;1.58;;;;;;;;;;4996609;28;20389;-86
2023/02/25 13:42:10;;;;;;;3.42;1.70;;;;;;;;;;4985980;28;20391;-85
2023/02/25 13:44:44;;;;;;;3.28;1.65;;;;;;;;;;5002879;28;20472;-87
2023/02/25 13:47:16;;;;;;;2.75;1.42;;;;;;;;;;5014041;28;20742;-86
2023/02/25 13:49:45;;;;;;;3.35;1.63;;;;;;;;;;5013563;28;20396;-88
2023/02/25 13:52:11;;;;;;;3.00;1.55;;;;;;;;;;5003516;28;20401;-82
2023/02/25 13:55:00;;;;;;;3.45;1.77;;;;;;;;;;4991541;28;20416;-82
2023/02/25 13:57:45;;;;;;;2.40;1.23;;;;;;;;;;5005580;28;20503;-84
2023/02/25 14:00:12;;;;;;;3.17;1.48;;;;;;;;;;4988469;28;20449;-84
2023/02/25 14:02:50;;;;;;;3.03;1.55;;;;;;;;;;5000089;28;20437;-82
2023/02/25 14:05:37;;;;;;;3.30;2.03;;;;;;;;;;5006232;28;20764;-84
2023/02/25 14:08:21;;;;;;;3.95;2.00;;;;;;;;;;4985529;28;20766;-83
2023/02/25 14:10:53;;;;;;;3.55;1.75;;;;;;;;;;5003164;28;20408;-89
2023/02/25 14:13:38;;;;;;;3.03;1.30;;;;;;;;;;5006350;28;20389;-89
2023/02/25 14:16:04;;;;;;;3.92;1.67;;;;;;;;;;4986116;28;20472;-85
2023/02/25 14:18:33;;;;;;;2.80;1.60;;;;;;;;;;4993199;28;20494;-85
2023/02/25 14:21:05;;;;;;;4.03;1.67;;;;;;;;;;5007307;28;20752;-85
2023/02/25 14:23:37;;;;;;;2.10;1.38;;;;;;;;;;5002768;28;20397;-85
2023/02/25 14:26:06;;;;;;;2.80;1.40;;;;;;;;;;4999831;28;20402;-89
2023/02/25 14:28:43;;;;;;;2.47;1.25;;;;;;;;;;5005493;28;20486;-89
2023/02/25 14:31:15;;;;;;;4.03;1.50;;;;;;;;;;5005480;28;20421;-90
2023/02/25 14:33:46;;;;;;;4.70;1.50;;;;;;;;;;5009185;28;20924;-90
2023/02/25 14:36:27;;;;;;;3.05;1.27;;;;;;;;;;5002734;28;20417;-86
2023/02/25 14:39:12;;;;;;;3.13;1.40;;;;;;;;;;4998811;28;20390;-79
2023/02/25 14:41:57;;;;;;;3.83;1.60;;;;;;;;;;5007851;28;20474;-83
2023/02/25 14:44:42;;;;;;;3.92;1.45;;;;;;;;;;5007876;28;20393;-84
2023/02/25 14:47:15;;;;;;;3.83;1.70;;;;;;;;;;5008359;28;20409;-85
2023/02/25 14:49:53;;;;;;;2.42;1.20;;;;;;;;;;5004480;28;20394;-84
2023/02/25 14:52:45;;;;;;;4.38;1.30;;;;;;;;;;4998726;28;20393;-82
2023/02/25 14:55:37;;;;;;;2.25;1.30;;;;;;;;;;4998511;28;20403;-83
2023/02/25 14:58:12;;;;;;;2.13;1.35;;;;;;;;;;5005630;28;20408;-82
2023/02/25 15:00:50;;;;;;;2.67;1.27;;;;;;;;;;5006454;28;20471;-83
2023/02/25 15:03:34;;;;;;;2.42;1.50;;;;;;;;;;4999521;28;20473;-81
2023/02/25 15:06:18;;;;;;;3.10;1.30;;;;;;;;;;4988448;28;20386;-80
2023/02/25 15:09:03;;;;;;;2.97;1.70;;;;;;;;;;5004545;28;20390;-81
2023/02/25 15:11:35;;;;;;;2.60;1.20;;;;;;;;;;4999163;28;20403;-83
2023/02/25 15:14:17;;;;;;;2.58;1.35;;;;;;;;;;5003116;28;20410;-84
2023/02/25 15:17:05;;;;;;;3.67;1.60;;;;;;;;;;4998905;28;20502;-84
2023/02/25 15:19:37;;;;;;;3.38;1.40;;;;;;;;;;4994751;28;20391;-83
2023/02/25 15:22:20;;;;;;;2.60;1.50;;;;;;;;;;4995490;28;20418;-87
2023/02/25 15:24:47;;;;;;;3.78;2.53;;;;;;;;;;4995002;28;20394;-85
2023/02/25 15:27:32;;;;;;;3.60;1.70;;;;;;;;;;4993989;28;20402;-85
2023/02/25 15:29:59;;;;;;;2.90;1.50;;;;;;;;;;4994593;28;20396;-85
2023/02/25 15:32:28;;;;;;;2.95;1.20;;;;;;;;;;5002047;28;20484;-86
2023/02/25 15:34:59;;;;;;;1.83;1.20;;;;;;;;;;5003304;28;20402;-85